Terminal Aerodrome Forecast
Issued by NWS

Home | Current Version | Previous Version | Text Only | Print | Product List | Glossary On
Versions: 1 2 3 4 5 6 7 8 9 10 11 12
000
FTUS46 KSGX 282325
TAFPSP
TAF
KPSP 282325Z 0100/0124 08008KT P6SM BKN100
      TEMPO 0100/0103 33012G20KT
     FM010300 VRB05KT P6SM BKN100
     FM011800 VRB06KT P6SM VCSH BKN070=

USA.gov is the U.S. government's official web portal to all federal, state and local government web resources and services.